Map

Track Data

SID SEASON NUMBER BASIN SUBBASIN NAME ISO_TIME NATURE LAT LON WMO_WIND WMO_PRES WMO_AGENCY TRACK_TYPE DIST2LAND LANDFALL IFLAG USA_AGENCY USA_ATCF_ID USA_LAT USA_LON USA_RECORD USA_STATUS USA_WIND USA_PRES USA_SSHS USA_R34_NE USA_R34_SE USA_R34_SW USA_R34_NW USA_R50_NE USA_R50_SE USA_R50_SW USA_R50_NW USA_R64_NE USA_R64_SE USA_R64_SW USA_R64_NW USA_POCI USA_ROCI USA_RMW USA_EYE TOKYO_LAT TOKYO_LON TOKYO_GRADE TOKYO_WIND TOKYO_PRES TOKYO_R50_DIR TOKYO_R50_LONG TOKYO_R50_SHORT TOKYO_R30_DIR TOKYO_R30_LONG TOKYO_R30_SHORT TOKYO_LAND CMA_LAT CMA_LON CMA_CAT CMA_WIND CMA_PRES HKO_LAT HKO_LON HKO_CAT HKO_WIND HKO_PRES NEWDELHI_LAT NEWDELHI_LON NEWDELHI_GRADE NEWDELHI_WIND NEWDELHI_PRES NEWDELHI_CI NEWDELHI_DP NEWDELHI_POCI REUNION_LAT REUNION_LON REUNION_TYPE REUNION_WIND REUNION_PRES REUNION_TNUM REUNION_CI REUNION_RMW REUNION_R34_NE REUNION_R34_SE REUNION_R34_SW REUNION_R34_NW REUNION_R50_NE REUNION_R50_SE REUNION_R50_SW REUNION_R50_NW REUNION_R64_NE REUNION_R64_SE REUNION_R64_SW REUNION_R64_NW BOM_LAT BOM_LON BOM_TYPE BOM_WIND BOM_PRES BOM_TNUM BOM_CI BOM_RMW BOM_R34_NE BOM_R34_SE BOM_R34_SW BOM_R34_NW BOM_R50_NE BOM_R50_SE BOM_R50_SW BOM_R50_NW BOM_R64_NE BOM_R64_SE BOM_R64_SW BOM_R64_NW BOM_ROCI BOM_POCI BOM_EYE BOM_POS_METHOD BOM_PRES_METHOD NADI_LAT NADI_LON NADI_CAT NADI_WIND NADI_PRES WELLINGTON_LAT WELLINGTON_LON WELLINGTON_WIND WELLINGTON_PRES DS824_LAT DS824_LON DS824_STAGE DS824_WIND DS824_PRES TD9636_LAT TD9636_LON TD9636_STAGE TD9636_WIND TD9636_PRES TD9635_LAT TD9635_LON TD9635_WIND TD9635_PRES TD9635_ROCI NEUMANN_LAT NEUMANN_LON NEUMANN_CLASS NEUMANN_WIND NEUMANN_PRES MLC_LAT MLC_LON MLC_CLASS MLC_WIND MLC_PRES USA_GUST BOM_GUST BOM_GUST_PER REUNION_GUST REUNION_GUST_PER USA_SEAHGT USA_SEARAD_NE USA_SEARAD_SE USA_SEARAD_SW USA_SEARAD_NW STORM_SPEED STORM_DIR
2022083S13076 2022 11 SI MM HALIMA 2022-03-23 12:00:00 NR -13.3000 75.8000 PROVISIONAL 2068 2068 O_____________ tcvitals SI222022 -13.3000 75.8000 35 998 0 25 20 1006 255 25 8 12
2022083S13076 2022 11 SI MM HALIMA 2022-03-23 15:00:00 NR -12.9325 75.8801 PROVISIONAL 2097 2097 P_____________ SI222022 -12.9325 75.8801 40 997 0 47 50 1006 255 27 6 9
2022083S13076 2022 11 SI MM HALIMA 2022-03-23 18:00:00 NR -12.7000 75.9000 PROVISIONAL 2107 2097 O_____________ tcvitals SI222022 -12.7000 75.9000 45 997 0 70 80 65 1007 255 30 3 343
2022083S13076 2022 11 SI MM HALIMA 2022-03-23 21:00:00 NR -12.6899 75.8100 PROVISIONAL 2097 2072 P_____________ SI222022 -12.6899 75.8100 52 992 0 70 72 47 1006 260 27 3 251
2022083S13076 2022 11 SI MM HALIMA 2022-03-24 00:00:00 NR -12.8000 75.6000 PROVISIONAL 2072 2038 O_____________ tcvitals SI222022 -12.8000 75.6000 60 987 0 70 70 65 30 1005 265 25 6 248
2022083S13076 2022 11 SI MM HALIMA 2022-03-24 03:00:00 NR -12.9001 75.2651 PROVISIONAL 2038 1995 P_____________ SI222022 -12.9001 75.2651 60 987 0 62 75 72 42 1005 257 19 7 254
2022083S13076 2022 11 SI MM HALIMA 2022-03-24 06:00:00 NR -13.0000 74.9000 PROVISIONAL 1995 1965 O_____________ tcvitals SI222022 -13.0000 74.9000 60 988 0 55 80 80 55 1006 250 14 6 257
2022083S13076 2022 11 SI MM HALIMA 2022-03-24 09:00:00 NR -13.0425 74.6199 PROVISIONAL 1965 1941 P_____________ SI222022 -13.0425 74.6199 62 986 0 55 80 80 55 1006 250 9 5 258
2022083S13076 2022 11 SI MM HALIMA 2022-03-24 12:00:00 NR -13.1000 74.4000 PROVISIONAL 1941 1926 O_____________ tcvitals SI222022 -13.1000 74.4000 64 985 1 55 80 80 55 1006 250 5 4 240
2022083S13076 2022 11 SI MM HALIMA 2022-03-24 15:00:00 NR -13.2574 74.2425 PROVISIONAL 1912 1897 P_____________ SI222022 -13.2574 74.2425 76 976 1 57 85 82 55 1006 255 5 4 224
2022083S13076 2022 11 SI MM HALIMA 2022-03-24 18:00:00 NR -13.4000 74.1000 PROVISIONAL 1897 1878 O_____________ tcvitals SI222022 -13.4000 74.1000 89 967 2 60 90 85 55 1006 260 5 4 247
2022083S13076 2022 11 SI MM HALIMA 2022-03-24 21:00:00 NR -13.4075 73.8849 PROVISIONAL 1878 1858 P_____________ SI222022 -13.4075 73.8849 89 966 2 60 90 85 55 1006 260 5 4 270
2022083S13076 2022 11 SI MM HALIMA 2022-03-25 00:00:00 NR -13.4000 73.7000 PROVISIONAL 1858 1849 O_____________ tcvitals SI222022 -13.4000 73.7000 89 966 2 60 90 85 55 1006 260 5 2 259
2022083S13076 2022 11 SI MM HALIMA 2022-03-25 03:00:00 NR -13.4550 73.6350 PROVISIONAL 1844 1839 P_____________ SI222022 -13.4550 73.6350 99 956 3 82 110 105 77 1006 260 5 2 207
2022083S13076 2022 11 SI MM HALIMA 2022-03-25 06:00:00 NR -13.6000 73.6000 PROVISIONAL 1839 1814 O_____________ tcvitals SI222022 -13.6000 73.6000 109 947 3 105 130 126 100 1006 260 5 4 198
2022083S13076 2022 11 SI MM HALIMA 2022-03-25 09:00:00 NR -13.8700 73.4926 PROVISIONAL 1814 1790 P_____________ SI222022 -13.8700 73.4926 114 942 4 82 95 98 87 1005 255 5 6 198
2022083S13076 2022 11 SI MM HALIMA 2022-03-25 12:00:00 NR -14.2000 73.4000 PROVISIONAL 1790 1776 O_____________ tcvitals SI222022 -14.2000 73.4000 119 938 4 60 60 70 75 1004 250 5 6 189
2022083S13076 2022 11 SI MM HALIMA 2022-03-25 15:00:00 NR -14.5075 73.3924 PROVISIONAL 1776 1763 P_____________ SI222022 -14.5075 73.3924 117 942 4 77 95 98 85 1006 330 5 6 179
2022083S13076 2022 11 SI MM HALIMA 2022-03-25 18:00:00 NR -14.8000 73.4000 PROVISIONAL 1763 1745 O_____________ tcvitals SI222022 -14.8000 73.4000 115 947 4 95 130 126 95 1009 410 5 5 190
2022083S13076 2022 11 SI MM HALIMA 2022-03-25 21:00:00 NR -15.0350 73.3053 PROVISIONAL 1745 1732 P_____________ SI222022 -15.0350 73.3053 112 947 3 105 130 123 95 1007 357 5 5 191
2022083S13076 2022 11 SI MM HALIMA 2022-03-26 00:00:00 NR -15.3000 73.3000 PROVISIONAL 1732 1728 O_____________ tcvitals SI222022 -15.3000 73.3000 109 948 3 115 130 120 95 1006 305 5 7 160
2022083S13076 2022 11 SI MM HALIMA 2022-03-26 03:00:00 NR -15.6550 73.5325 PROVISIONAL 1737 1737 P_____________ SI222022 -15.6550 73.5325 104 950 3 102 85 85 77 1006 300 5 10 144
2022083S13076 2022 11 SI MM HALIMA 2022-03-26 06:00:00 NR -16.1000 73.9000 PROVISIONAL 1763 1760 O_____________ tcvitals SI222022 -16.1000 73.9000 99 952 3 90 40 50 60 1006 295 5 12 143
2022083S13076 2022 11 SI MM HALIMA 2022-03-26 09:00:00 NR -16.6351 74.2998 PROVISIONAL 1788 1785 P_____________ SI222022 -16.6351 74.2998 91 961 2 85 40 50 57 1005 242 5 13 145
2022083S13076 2022 11 SI MM HALIMA 2022-03-26 12:00:00 NR -17.2000 74.7000 PROVISIONAL 1812 1809 O_____________ tcvitals SI222022 -17.2000 74.7000 84 970 2 80 40 50 55 1005 190 5 13 147
2022083S13076 2022 11 SI MM HALIMA 2022-03-26 15:00:00 NR -17.6774 75.0155 PROVISIONAL 1830 1830 P_____________ SI222022 -17.6774 75.0155 77 977 1 82 65 62 65 1006 175 5 12 150
2022083S13076 2022 11 SI MM HALIMA 2022-03-26 18:00:00 NR -18.2000 75.3000 PROVISIONAL 1851 1849 O_____________ tcvitals SI222022 -18.2000 75.3000 70 984 1 85 90 75 75 1007 160 5 13 157
2022083S13076 2022 11 SI MM HALIMA 2022-03-26 21:00:00 NR -18.9073 75.5776 PROVISIONAL 1870 1867 P_____________ SI222022 -18.9073 75.5776 67 985 1 87 85 62 67 1007 152 9 15 158
2022083S13076 2022 11 SI MM HALIMA 2022-03-27 00:00:00 NR -19.6000 75.9000 PROVISIONAL 1892 1891 O_____________ tcvitals SI222022 -19.6000 75.9000 64 987 1 90 80 50 60 1007 145 14 14 151
2022083S13076 2022 11 SI MM HALIMA 2022-03-27 03:00:00 NR -20.1172 76.2977 PROVISIONAL 1929 1928 P_____________ SI222022 -20.1172 76.2977 59 989 0 82 80 72 57 1007 147 14 12 137
2022083S13076 2022 11 SI MM HALIMA 2022-03-27 06:00:00 NR -20.5000 76.8000 PROVISIONAL 1978 1978 O_____________ tcvitals SI222022 -20.5000 76.8000 54 992 0 75 80 95 55 1008 150 14 13 122
2022083S13076 2022 11 SI MM HALIMA 2022-03-27 09:00:00 NR -20.7952 77.4351 PROVISIONAL 2039 2039 P_____________ SI222022 -20.7952 77.4351 52 993 0 70 77 87 50 1008 147 17 13 112
2022083S13076 2022 11 SI MM HALIMA 2022-03-27 12:00:00 NR -21.0000 78.1000 PROVISIONAL 2111 2111 O_____________ tcvitals SI222022 -21.0000 78.1000 51 995 0 65 75 80 45 1008 145 20 12 107
2022083S13076 2022 11 SI MM HALIMA 2022-03-27 15:00:00 NR -21.1575 78.7028 PROVISIONAL 2173 2173 P_____________ SI222022 -21.1575 78.7028 48 996 0 67 80 87 50 1008 160 20 11 106
2022083S13076 2022 11 SI MM HALIMA 2022-03-27 18:00:00 NR -21.3000 79.2000 PROVISIONAL 2225 2225 O_____________ tcvitals SI222022 -21.3000 79.2000 45 997 0 70 85 95 55 1009 175 20 8 114
2022083S13076 2022 11 SI MM HALIMA 2022-03-27 21:00:00 NR -21.4996 79.5227 PROVISIONAL 2255 2255 P_____________ SI222022 -21.4996 79.5227 45 998 0 75 80 77 60 1009 175 20 7 126
2022083S13076 2022 11 SI MM HALIMA 2022-03-28 00:00:00 NR -21.7000 79.8000 PROVISIONAL 2286 2286 O_____________ tcvitals SI222022 -21.7000 79.8000 45 1000 0 80 75 60 65 1009 175 20 7 121
2022083S13076 2022 11 SI MM HALIMA 2022-03-28 03:00:00 NR -21.8649 80.1775 PROVISIONAL 2328 2328 P_____________ SI222022 -21.8649 80.1775 45 999 0 80 70 62 62 1009 177 20 8 112
2022083S13076 2022 11 SI MM HALIMA 2022-03-28 06:00:00 NR -22.0000 80.6000 PROVISIONAL 2369 2369 O_____________ tcvitals SI222022 -22.0000 80.6000 45 998 0 80 65 65 60 1009 180 20 9 108
2022083S13076 2022 11 SI MM HALIMA 2022-03-28 09:00:00 NR -22.1301 81.0724 PROVISIONAL 2421 2421 P_____________ SI222022 -22.1301 81.0724 45 998 0 85 70 65 70 1008 195 30 9 103
2022083S13076 2022 11 SI MM HALIMA 2022-03-28 12:00:00 NR -22.2000 81.5000 PROVISIONAL 2462 2462 O_____________ tcvitals SI222022 -22.2000 81.5000 45 998 0 90 75 65 80 1007 210 40 7 94
2022083S13076 2022 11 SI MM HALIMA 2022-03-28 15:00:00 NR -22.1798 81.7876 PROVISIONAL 2493 2493 P_____________ SI222022 -22.1798 81.7876 45 998 0 85 67 65 77 1007 240 40 5 78
2022083S13076 2022 11 SI MM HALIMA 2022-03-28 18:00:00 NR -22.1000 82.0000 PROVISIONAL 2513 2513 O_____________ tcvitals SI222022 -22.1000 82.0000 45 998 0 80 60 65 75 1008 270 40 4 67
2022083S13076 2022 11 SI MM HALIMA 2022-03-28 21:00:00 NR -22.0075 82.2300 PROVISIONAL 2534 2534 P_____________ SI222022 -22.0075 82.2300 45 997 0 80 60 65 75 1007 275 40 4 62
2022083S13076 2022 11 SI MM HALIMA 2022-03-29 00:00:00 NR -21.9000 82.4000 PROVISIONAL 2555 2555 O_____________ tcvitals SI222022 -21.9000 82.4000 45 996 0 80 60 65 75 1006 280 40 3 49
2022083S13076 2022 11 SI MM HALIMA 2022-03-29 03:00:00 NR -21.8075 82.4800 PROVISIONAL 2565 2565 P_____________ SI222022 -21.8075 82.4800 45 996 0 70 57 62 67 1006 280 40 2 27
2022083S13076 2022 11 SI MM HALIMA 2022-03-29 06:00:00 NR -21.7000 82.5000 PROVISIONAL 2565 2565 O_____________ tcvitals SI222022 -21.7000 82.5000 45 996 0 60 55 60 60 1006 280 40 2 10
2022083S13076 2022 11 SI MM HALIMA 2022-03-29 09:00:00 NR -21.5800 82.5226 PROVISIONAL 2565 2565 P_____________ SI222022 -21.5800 82.5226 45 995 0 75 62 67 75 1006 280 40 3 0
2022083S13076 2022 11 SI MM HALIMA 2022-03-29 12:00:00 NR -21.4000 82.5000 PROVISIONAL 2566 2566 O_____________ tcvitals SI222022 -21.4000 82.5000 45 994 0 90 70 75 90 1006 280 40 5 352
2022083S13076 2022 11 SI MM HALIMA 2022-03-29 15:00:00 NR -21.1299 82.4452 PROVISIONAL 2557 2548 P_____________ SI222022 -21.1299 82.4452 45 994 0 85 80 75 85 1006 290 40 6 343
2022083S13076 2022 11 SI MM HALIMA 2022-03-29 18:00:00 NR -20.8000 82.3000 PROVISIONAL 2548 2519 O_____________ tcvitals SI222022 -20.8000 82.3000 45 995 0 80 90 75 80 1006 300 40 8 327
2022083S13076 2022 11 SI MM HALIMA 2022-03-29 21:00:00 NR -20.4277 81.9544 PROVISIONAL 2520 2490 P_____________ SI222022 -20.4277 81.9544 45 996 0 72 80 67 72 1006 300 40 9 321
2022083S13076 2022 11 SI MM HALIMA 2022-03-30 00:00:00 NR -20.1000 81.7000 PROVISIONAL 2491 2491 O_____________ tcvitals SI222022 -20.1000 81.7000 45 997 0 65 70 60 65 1007 300 40 5 348
2022083S13076 2022 11 SI MM HALIMA 2022-03-30 03:00:00 NR -19.9051 81.8403 PROVISIONAL 2504 2504 P_____________ SI222022 -19.9051 81.8403 45 997 0 67 67 62 67 1007 300 40 5 51
2022083S13076 2022 11 SI MM HALIMA 2022-03-30 06:00:00 NR -19.8000 82.1000 PROVISIONAL 2536 2536 O_____________ tcvitals SI222022 -19.8000 82.1000 45 997 0 70 65 65 70 1007 300 40 4 65
2022083S13076 2022 11 SI MM HALIMA 2022-03-30 09:00:00 NR -19.7425 82.2149 PROVISIONAL 2547 2547 P_____________ SI222022 -19.7425 82.2149 42 997 0 52 60 67 60 1006 300 40 2 62
2022083S13076 2022 11 SI MM HALIMA 2022-03-30 12:00:00 NR -19.7000 82.3000 PROVISIONAL 2558 2558 O_____________ tcvitals SI222022 -19.7000 82.3000 39 998 0 35 55 70 50 1006 300 40 2 45
2022083S13076 2022 11 SI MM HALIMA 2022-03-30 15:00:00 NR -19.6073 82.3549 PROVISIONAL 2569 2569 P_____________ SI222022 -19.6073 82.3549 37 999 0 60 55 72 52 1006 300 40 3 44
2022083S13076 2022 11 SI MM HALIMA 2022-03-30 18:00:00 NR -19.5000 82.5000 PROVISIONAL 2581 2581 O_____________ tcvitals SI222022 -19.5000 82.5000 35 1001 0 85 55 75 55 1007 300 40 6 65
2022083S13076 2022 11 SI MM HALIMA 2022-03-30 21:00:00 NR -19.3703 82.8927 PROVISIONAL 2624 2602 P_____________ SI222022 -19.3703 82.8927 35 1001 0 72 72 67 60 1007 320 40 8 75
2022083S13076 2022 11 SI MM HALIMA 2022-03-31 00:00:00 NR -19.3000 83.3000 PROVISIONAL 2602 2595 O_____________ tcvitals SI222022 -19.3000 83.3000 35 1002 0 60 90 60 65 1007 340 40 5 92
2022083S13076 2022 11 SI MM HALIMA 2022-03-31 03:00:00 NR -19.3848 83.4649 PROVISIONAL 2596 2596 P_____________ SI222022 -19.3848 83.4649 37 1001 0 55 82 52 45 1007 300 42 3 125
2022083S13076 2022 11 SI MM HALIMA 2022-03-31 06:00:00 NR -19.5000 83.6000 PROVISIONAL 2597 2576 O_____________ tcvitals SI222022 -19.5000 83.6000 39 1000 0 50 75 45 25 1007 260 45 4 106
2022083S13076 2022 11 SI MM HALIMA 2022-03-31 09:00:00 NR -19.5077 83.9076 PROVISIONAL 2576 2556 P_____________ SI222022 -19.5077 83.9076 42 999 0 52 80 45 27 1007 260 45 6 90
2022083S13076 2022 11 SI MM HALIMA 2022-03-31 12:00:00 NR -19.5000 84.2000 PROVISIONAL 2556 2542 O_____________ tcvitals SI222022 -19.5000 84.2000 45 998 0 55 85 45 30 1007 260 45 4 97
2022083S13076 2022 11 SI MM HALIMA 2022-03-31 15:00:00 NR -19.5649 84.3750 PROVISIONAL 2551 2551 P_____________ SI222022 -19.5649 84.3750 45 998 0 65 92 60 37 1007 250 45 2 118
2022083S13076 2022 11 SI MM HALIMA 2022-03-31 18:00:00 NR -19.6000 84.4000 PROVISIONAL 2551 2551 O_____________ tcvitals SI222022 -19.6000 84.4000 45 998 0 75 100 75 45 1008 240 45 2 285
2022083S13076 2022 11 SI MM HALIMA 2022-03-31 21:00:00 NR -19.5151 84.1773 PROVISIONAL 2556 2556 P_____________ SI222022 -19.5151 84.1773 42 998 0 72 77 60 42 1007 220 45 4 298
2022083S13076 2022 11 SI MM HALIMA 2022-04-01 00:00:00 NR -19.4000 84.0000 PROVISIONAL 2561 2539 O_____________ tcvitals SI222022 -19.4000 84.0000 39 999 0 70 55 45 40 1007 200 45 2 14
2022083S13076 2022 11 SI MM HALIMA 2022-04-01 03:00:00 NR -19.3352 84.2201 PROVISIONAL 2539 2518 P_____________ SI222022 -19.3352 84.2201 37 1000 0 60 33 47 42 1006 180 47 5 78
2022083S13076 2022 11 SI MM HALIMA 2022-04-01 06:00:00 NR -19.3000 84.5000 PROVISIONAL 2518 2512 O_____________ tcvitals SI222022 -19.3000 84.5000 35 1001 0 50 11 50 45 1006 160 50 3 84
2022083S13076 2022 11 SI MM HALIMA 2022-04-01 09:00:00 NR -19.2999 84.5525 PROVISIONAL 2512 2512 P_____________ SI222022 -19.2999 84.5525 35 1001 0 47 13 47 37 1006 160 47 0 0
2022083S13076 2022 11 SI MM HALIMA 2022-04-01 12:00:00 NR -19.3000 84.5000 PROVISIONAL 2518 2518 O_____________ tcvitals SI222022 -19.3000 84.5000 35 1001 0 45 15 45 30 1006 160 45 1 284
2022083S13076 2022 11 SI MM HALIMA 2022-04-01 15:00:00 NR -19.2650 84.4000 PROVISIONAL 2525 2517 P_____________ SI222022 -19.2650 84.4000 32 1001 -1 1007 155 45 2 298
2022083S13076 2022 11 SI MM HALIMA 2022-04-01 18:00:00 NR -19.2000 84.3000 PROVISIONAL 2524 2522 O_____________ tcvitals SI222022 -19.2000 84.3000 29 1002 -1 1008 150 45 2 317
2022083S13076 2022 11 SI MM HALIMA 2022-04-01 21:00:00 NR -19.0999 84.2325 PROVISIONAL 2522 2507 P_____________ SI222022 -19.0999 84.2325 29 1001 -1 1007 165 45 2 8
2022083S13076 2022 11 SI MM HALIMA 2022-04-02 00:00:00 NR -19.0000 84.3000 PROVISIONAL 2507 2471 O_____________ tcvitals SI222022 -19.0000 84.3000 29 1001 -1 1007 180 45 5 71
2022083S13076 2022 11 SI MM HALIMA 2022-04-02 03:00:00 NR -18.9428 84.7026 PROVISIONAL 2471 2450 P_____________ SI222022 -18.9428 84.7026 29 1001 -1 1007 180 45 7 81
2022083S13076 2022 11 SI MM HALIMA 2022-04-02 06:00:00 NR -18.9000 85.0000 PROVISIONAL 2450 2450 O_____________ tcvitals SI222022 -18.9000 85.0000 29 1001 -1 1007 180 45 1 0
2022083S13076 2022 11 SI MM HALIMA 2022-04-02 09:00:00 NR -18.8503 84.7174 PROVISIONAL 2471 2462 P_____________ SI222022 -18.8503 84.7174 29 1001 -1 1007 180 45 7 279
2022083S13076 2022 11 SI MM HALIMA 2022-04-02 12:00:00 NR -18.8000 84.3000 PROVISIONAL 2490 2488 O_____________ tcvitals SI222022 -18.8000 84.3000 29 1001 -1 1007 180 45 5 285
2022083S13076 2022 11 SI MM HALIMA 2022-04-02 15:00:00 NR -18.7124 84.1700 PROVISIONAL 2488 2488 P_____________ SI222022 -18.7124 84.1700 29 1001 -1 1007 172 45 2 298
2022083S13076 2022 11 SI MM HALIMA 2022-04-02 18:00:00 NR -18.7000 84.1000 PROVISIONAL 2496 2496 O_____________ tcvitals SI222022 -18.7000 84.1000 29 1002 -1 1008 165 45 3 229
2022083S13076 2022 11 SI MM HALIMA 2022-04-02 21:00:00 NR -18.8925 83.9502 PROVISIONAL 2519 2519 P_____________ SI222022 -18.8925 83.9502 27 1003 -1 1007 162 45 5 215
2022083S13076 2022 11 SI MM HALIMA 2022-04-03 00:00:00 NR -19.1000 83.8000 PROVISIONAL 2550 2550 O_____________ tcvitals SI222022 -19.1000 83.8000 25 1004 -1 1007 160 45 4 223
2022083S13076 2022 11 SI MM HALIMA 2022-04-03 03:00:00 NR -19.1525 83.6874 PROVISIONAL 2565 2557 P_____________ SI222022 -19.1525 83.6874 25 1004 -1 1007 160 45 2 270
2022083S13076 2022 11 SI MM HALIMA 2022-04-03 06:00:00 NR -19.1000 83.6000 PROVISIONAL 2564 O_____________ tcvitals SI222022 -19.1000 83.6000 25 1004 -1 1007 160 45 2 303

About IBTrACS Database

This database is a web-friendly format of International Best Track Archive for Climate Stewardship (IBTrACS), a global best track data archive curated by NOAA dating back to 1842.

Updated: 2022-11-16